sensor_id;sensor_type;location;lat;lon;timestamp;P1;durP1;ratioP1;P2;durP2;ratioP2
17177;SDS011;8704;52.006;4.374;2022-10-31T00:00:45;24.17;;;22.65;;
17177;SDS011;8704;52.006;4.374;2022-10-31T00:03:15;23.13;;;21.52;;
17177;SDS011;8704;52.006;4.374;2022-10-31T00:05:43;22.98;;;21.58;;
17177;SDS011;8704;52.006;4.374;2022-10-31T00:08:12;22.13;;;20.67;;
17177;SDS011;8704;52.006;4.374;2022-10-31T00:10:41;21.40;;;20.00;;
17177;SDS011;8704;52.006;4.374;2022-10-31T00:13:10;23.40;;;21.88;;
17177;SDS011;8704;52.006;4.374;2022-10-31T00:15:40;23.20;;;21.67;;
17177;SDS011;8704;52.006;4.374;2022-10-31T00:18:08;23.67;;;22.27;;
17177;SDS011;8704;52.006;4.374;2022-10-31T00:20:38;21.15;;;19.80;;
17177;SDS011;8704;52.006;4.374;2022-10-31T00:23:06;23.13;;;21.73;;
17177;SDS011;8704;52.006;4.374;2022-10-31T00:25:35;22.85;;;21.35;;
17177;SDS011;8704;52.006;4.374;2022-10-31T00:28:05;25.50;;;23.90;;
17177;SDS011;8704;52.006;4.374;2022-10-31T00:30:34;22.90;;;21.33;;
17177;SDS011;8704;52.006;4.374;2022-10-31T00:33:04;22.13;;;20.65;;
17177;SDS011;8704;52.006;4.374;2022-10-31T00:35:34;20.55;;;19.15;;
17177;SDS011;8704;52.006;4.374;2022-10-31T00:38:03;18.92;;;17.45;;
17177;SDS011;8704;52.006;4.374;2022-10-31T00:40:31;19.88;;;18.50;;
17177;SDS011;8704;52.006;4.374;2022-10-31T00:42:59;20.23;;;18.92;;
17177;SDS011;8704;52.006;4.374;2022-10-31T00:45:28;22.30;;;20.90;;
17177;SDS011;8704;52.006;4.374;2022-10-31T00:47:56;20.30;;;18.88;;
17177;SDS011;8704;52.006;4.374;2022-10-31T00:50:24;21.33;;;19.80;;
17177;SDS011;8704;52.006;4.374;2022-10-31T00:52:52;20.27;;;18.83;;
17177;SDS011;8704;52.006;4.374;2022-10-31T00:55:22;22.70;;;21.00;;
17177;SDS011;8704;52.006;4.374;2022-10-31T00:57:50;24.77;;;23.10;;
17177;SDS011;8704;52.006;4.374;2022-10-31T01:00:18;22.25;;;20.85;;
17177;SDS011;8704;52.006;4.374;2022-10-31T01:02:46;23.25;;;21.50;;
17177;SDS011;8704;52.006;4.374;2022-10-31T01:05:14;22.38;;;20.88;;
17177;SDS011;8704;52.006;4.374;2022-10-31T01:07:42;22.13;;;20.65;;
17177;SDS011;8704;52.006;4.374;2022-10-31T01:10:10;23.73;;;22.10;;
17177;SDS011;8704;52.006;4.374;2022-10-31T01:12:40;23.33;;;21.73;;
17177;SDS011;8704;52.006;4.374;2022-10-31T01:15:10;23.25;;;21.70;;
17177;SDS011;8704;52.006;4.374;2022-10-31T01:17:39;21.35;;;19.95;;
17177;SDS011;8704;52.006;4.374;2022-10-31T01:20:09;24.17;;;22.48;;
17177;SDS011;8704;52.006;4.374;2022-10-31T01:22:39;24.27;;;22.50;;
17177;SDS011;8704;52.006;4.374;2022-10-31T01:25:07;24.05;;;22.25;;
17177;SDS011;8704;52.006;4.374;2022-10-31T01:27:36;25.05;;;23.30;;
17177;SDS011;8704;52.006;4.374;2022-10-31T01:30:06;24.85;;;23.15;;
17177;SDS011;8704;52.006;4.374;2022-10-31T01:32:34;28.02;;;26.40;;
17177;SDS011;8704;52.006;4.374;2022-10-31T01:35:03;28.45;;;26.55;;
17177;SDS011;8704;52.006;4.374;2022-10-31T01:37:31;29.50;;;27.45;;
17177;SDS011;8704;52.006;4.374;2022-10-31T01:39:59;26.65;;;24.75;;
17177;SDS011;8704;52.006;4.374;2022-10-31T01:42:27;35.20;;;33.08;;
17177;SDS011;8704;52.006;4.374;2022-10-31T01:44:56;35.17;;;32.55;;
17177;SDS011;8704;52.006;4.374;2022-10-31T01:47:30;30.37;;;28.33;;
17177;SDS011;8704;52.006;4.374;2022-10-31T01:50:06;29.77;;;27.73;;
17177;SDS011;8704;52.006;4.374;2022-10-31T01:52:41;30.27;;;28.02;;
17177;SDS011;8704;52.006;4.374;2022-10-31T01:55:12;28.02;;;26.23;;
17177;SDS011;8704;52.006;4.374;2022-10-31T01:57:44;28.85;;;26.83;;
17177;SDS011;8704;52.006;4.374;2022-10-31T02:00:14;27.55;;;25.75;;
17177;SDS011;8704;52.006;4.374;2022-10-31T02:02:46;28.55;;;26.75;;
17177;SDS011;8704;52.006;4.374;2022-10-31T02:05:17;28.75;;;26.75;;
17177;SDS011;8704;52.006;4.374;2022-10-31T02:07:48;30.95;;;28.75;;
17177;SDS011;8704;52.006;4.374;2022-10-31T02:10:20;33.53;;;31.33;;
17177;SDS011;8704;52.006;4.374;2022-10-31T02:12:50;30.98;;;28.90;;
17177;SDS011;8704;52.006;4.374;2022-10-31T02:15:19;30.90;;;28.80;;
17177;SDS011;8704;52.006;4.374;2022-10-31T02:17:48;32.17;;;30.00;;
17177;SDS011;8704;52.006;4.374;2022-10-31T02:20:17;28.83;;;26.95;;
17177;SDS011;8704;52.006;4.374;2022-10-31T02:23:01;29.17;;;27.08;;
17177;SDS011;8704;52.006;4.374;2022-10-31T02:25:59;31.00;;;28.63;;
17177;SDS011;8704;52.006;4.374;2022-10-31T02:29:05;32.15;;;29.98;;
17177;SDS011;8704;52.006;4.374;2022-10-31T02:31:53;33.83;;;31.52;;
17177;SDS011;8704;52.006;4.374;2022-10-31T02:34:28;34.25;;;31.83;;
17177;SDS011;8704;52.006;4.374;2022-10-31T02:37:02;33.67;;;31.48;;
17177;SDS011;8704;52.006;4.374;2022-10-31T02:39:40;36.45;;;34.13;;
17177;SDS011;8704;52.006;4.374;2022-10-31T02:42:16;35.15;;;32.75;;
17177;SDS011;8704;52.006;4.374;2022-10-31T02:44:51;36.92;;;34.55;;
17177;SDS011;8704;52.006;4.374;2022-10-31T02:47:29;37.15;;;34.60;;
17177;SDS011;8704;52.006;4.374;2022-10-31T02:50:04;34.78;;;32.38;;
17177;SDS011;8704;52.006;4.374;2022-10-31T02:52:36;34.05;;;31.75;;
17177;SDS011;8704;52.006;4.374;2022-10-31T02:55:11;33.35;;;31.13;;
17177;SDS011;8704;52.006;4.374;2022-10-31T02:58:00;33.55;;;30.77;;
17177;SDS011;8704;52.006;4.374;2022-10-31T03:00:33;31.50;;;28.90;;
17177;SDS011;8704;52.006;4.374;2022-10-31T03:03:14;31.02;;;28.75;;
17177;SDS011;8704;52.006;4.374;2022-10-31T03:05:49;34.22;;;31.83;;
17177;SDS011;8704;52.006;4.374;2022-10-31T03:08:23;32.90;;;30.42;;
17177;SDS011;8704;52.006;4.374;2022-10-31T03:13:26;34.50;;;32.13;;
17177;SDS011;8704;52.006;4.374;2022-10-31T03:16:02;34.35;;;31.90;;
17177;SDS011;8704;52.006;4.374;2022-10-31T03:18:38;33.55;;;31.35;;
17177;SDS011;8704;52.006;4.374;2022-10-31T03:21:12;38.28;;;35.53;;
17177;SDS011;8704;52.006;4.374;2022-10-31T03:23:44;37.70;;;35.15;;
17177;SDS011;8704;52.006;4.374;2022-10-31T03:26:14;42.03;;;39.05;;
17177;SDS011;8704;52.006;4.374;2022-10-31T03:28:44;40.28;;;37.47;;
17177;SDS011;8704;52.006;4.374;2022-10-31T03:31:16;49.05;;;45.75;;
17177;SDS011;8704;52.006;4.374;2022-10-31T03:33:47;61.28;;;57.15;;
17177;SDS011;8704;52.006;4.374;2022-10-31T03:36:18;68.05;;;63.63;;
17177;SDS011;8704;52.006;4.374;2022-10-31T03:38:47;60.20;;;56.33;;
17177;SDS011;8704;52.006;4.374;2022-10-31T03:41:16;57.70;;;53.72;;
17177;SDS011;8704;52.006;4.374;2022-10-31T03:43:48;59.03;;;55.23;;
17177;SDS011;8704;52.006;4.374;2022-10-31T03:46:22;54.80;;;51.40;;
17177;SDS011;8704;52.006;4.374;2022-10-31T03:48:52;51.40;;;47.83;;
17177;SDS011;8704;52.006;4.374;2022-10-31T03:51:22;54.92;;;51.28;;
17177;SDS011;8704;52.006;4.374;2022-10-31T03:53:52;51.38;;;47.88;;
17177;SDS011;8704;52.006;4.374;2022-10-31T03:56:26;49.58;;;46.05;;
17177;SDS011;8704;52.006;4.374;2022-10-31T03:58:59;49.05;;;45.88;;
17177;SDS011;8704;52.006;4.374;2022-10-31T04:01:32;47.45;;;44.10;;
17177;SDS011;8704;52.006;4.374;2022-10-31T04:04:06;50.85;;;47.05;;
17177;SDS011;8704;52.006;4.374;2022-10-31T04:06:36;52.28;;;48.22;;
17177;SDS011;8704;52.006;4.374;2022-10-31T04:09:06;58.28;;;53.95;;
17177;SDS011;8704;52.006;4.374;2022-10-31T04:11:37;57.35;;;53.15;;
17177;SDS011;8704;52.006;4.374;2022-10-31T04:14:11;56.63;;;52.67;;
17177;SDS011;8704;52.006;4.374;2022-10-31T04:16:39;56.83;;;52.67;;
17177;SDS011;8704;52.006;4.374;2022-10-31T04:19:11;57.10;;;53.00;;
17177;SDS011;8704;52.006;4.374;2022-10-31T04:21:40;59.13;;;54.92;;
17177;SDS011;8704;52.006;4.374;2022-10-31T04:24:09;55.10;;;50.95;;
17177;SDS011;8704;52.006;4.374;2022-10-31T04:26:38;56.15;;;51.65;;
17177;SDS011;8704;52.006;4.374;2022-10-31T04:29:05;56.42;;;52.15;;
17177;SDS011;8704;52.006;4.374;2022-10-31T04:31:33;56.75;;;52.45;;
17177;SDS011;8704;52.006;4.374;2022-10-31T04:34:01;57.00;;;52.88;;
17177;SDS011;8704;52.006;4.374;2022-10-31T04:36:30;58.17;;;53.85;;
17177;SDS011;8704;52.006;4.374;2022-10-31T04:38:58;59.35;;;54.90;;
17177;SDS011;8704;52.006;4.374;2022-10-31T04:41:26;58.53;;;53.90;;
17177;SDS011;8704;52.006;4.374;2022-10-31T04:43:54;56.17;;;51.83;;
17177;SDS011;8704;52.006;4.374;2022-10-31T04:46:22;59.80;;;54.65;;
17177;SDS011;8704;52.006;4.374;2022-10-31T04:48:50;56.97;;;52.63;;
17177;SDS011;8704;52.006;4.374;2022-10-31T04:51:18;57.35;;;52.95;;
17177;SDS011;8704;52.006;4.374;2022-10-31T04:53:47;63.10;;;58.15;;
17177;SDS011;8704;52.006;4.374;2022-10-31T04:56:15;61.97;;;57.25;;
17177;SDS011;8704;52.006;4.374;2022-10-31T04:58:43;64.03;;;59.00;;
17177;SDS011;8704;52.006;4.374;2022-10-31T05:01:12;65.28;;;60.00;;
17177;SDS011;8704;52.006;4.374;2022-10-31T05:03:40;60.63;;;55.83;;
17177;SDS011;8704;52.006;4.374;2022-10-31T05:06:08;64.30;;;59.20;;
17177;SDS011;8704;52.006;4.374;2022-10-31T05:08:36;63.35;;;58.22;;
17177;SDS011;8704;52.006;4.374;2022-10-31T05:11:05;66.10;;;60.97;;
17177;SDS011;8704;52.006;4.374;2022-10-31T05:13:33;64.55;;;59.47;;
17177;SDS011;8704;52.006;4.374;2022-10-31T05:16:01;64.05;;;59.15;;
17177;SDS011;8704;52.006;4.374;2022-10-31T05:18:29;62.08;;;57.22;;
17177;SDS011;8704;52.006;4.374;2022-10-31T05:20:57;62.17;;;57.33;;
17177;SDS011;8704;52.006;4.374;2022-10-31T05:23:25;65.45;;;60.47;;
17177;SDS011;8704;52.006;4.374;2022-10-31T05:25:53;66.20;;;61.20;;
17177;SDS011;8704;52.006;4.374;2022-10-31T05:28:22;65.38;;;60.28;;
17177;SDS011;8704;52.006;4.374;2022-10-31T05:30:50;66.93;;;61.90;;
17177;SDS011;8704;52.006;4.374;2022-10-31T05:33:18;66.07;;;61.13;;
17177;SDS011;8704;52.006;4.374;2022-10-31T05:35:46;61.38;;;56.58;;
17177;SDS011;8704;52.006;4.374;2022-10-31T05:38:14;67.93;;;62.40;;
17177;SDS011;8704;52.006;4.374;2022-10-31T05:40:42;62.00;;;57.38;;
17177;SDS011;8704;52.006;4.374;2022-10-31T05:43:10;65.82;;;60.60;;
17177;SDS011;8704;52.006;4.374;2022-10-31T05:45:39;60.50;;;55.80;;
17177;SDS011;8704;52.006;4.374;2022-10-31T05:48:07;58.50;;;53.97;;
17177;SDS011;8704;52.006;4.374;2022-10-31T05:50:35;61.95;;;56.80;;
17177;SDS011;8704;52.006;4.374;2022-10-31T05:53:04;66.55;;;61.20;;
17177;SDS011;8704;52.006;4.374;2022-10-31T05:55:32;64.13;;;59.10;;
17177;SDS011;8704;52.006;4.374;2022-10-31T05:58:00;66.00;;;60.88;;
17177;SDS011;8704;52.006;4.374;2022-10-31T06:00:29;61.63;;;56.72;;
17177;SDS011;8704;52.006;4.374;2022-10-31T06:02:58;61.35;;;56.72;;
17177;SDS011;8704;52.006;4.374;2022-10-31T06:05:27;57.03;;;52.53;;
17177;SDS011;8704;52.006;4.374;2022-10-31T06:07:56;60.65;;;55.95;;
17177;SDS011;8704;52.006;4.374;2022-10-31T06:10:25;59.35;;;54.65;;
17177;SDS011;8704;52.006;4.374;2022-10-31T06:12:53;60.85;;;55.88;;
17177;SDS011;8704;52.006;4.374;2022-10-31T06:15:21;66.32;;;60.88;;
17177;SDS011;8704;52.006;4.374;2022-10-31T06:18:01;68.80;;;63.75;;
17177;SDS011;8704;52.006;4.374;2022-10-31T06:20:30;69.22;;;63.90;;
17177;SDS011;8704;52.006;4.374;2022-10-31T06:22:59;69.60;;;63.78;;
17177;SDS011;8704;52.006;4.374;2022-10-31T06:25:28;74.72;;;68.63;;
17177;SDS011;8704;52.006;4.374;2022-10-31T06:27:56;64.68;;;59.53;;
17177;SDS011;8704;52.006;4.374;2022-10-31T06:30:24;67.65;;;62.22;;
17177;SDS011;8704;52.006;4.374;2022-10-31T06:32:53;66.05;;;61.00;;
17177;SDS011;8704;52.006;4.374;2022-10-31T06:35:23;71.18;;;65.00;;
17177;SDS011;8704;52.006;4.374;2022-10-31T06:37:51;60.47;;;55.88;;
17177;SDS011;8704;52.006;4.374;2022-10-31T06:40:19;67.68;;;62.28;;
17177;SDS011;8704;52.006;4.374;2022-10-31T06:42:55;70.20;;;64.72;;
17177;SDS011;8704;52.006;4.374;2022-10-31T06:45:23;68.85;;;63.60;;
17177;SDS011;8704;52.006;4.374;2022-10-31T06:47:51;73.35;;;67.75;;
17177;SDS011;8704;52.006;4.374;2022-10-31T06:50:41;75.13;;;69.32;;
17177;SDS011;8704;52.006;4.374;2022-10-31T06:53:09;71.30;;;65.85;;
17177;SDS011;8704;52.006;4.374;2022-10-31T06:55:37;67.38;;;62.35;;
17177;SDS011;8704;52.006;4.374;2022-10-31T06:58:05;71.47;;;65.38;;
17177;SDS011;8704;52.006;4.374;2022-10-31T07:00:34;78.05;;;71.85;;
17177;SDS011;8704;52.006;4.374;2022-10-31T07:03:03;77.03;;;71.07;;
17177;SDS011;8704;52.006;4.374;2022-10-31T07:05:33;75.13;;;69.43;;
17177;SDS011;8704;52.006;4.374;2022-10-31T07:08:02;81.38;;;74.72;;
17177;SDS011;8704;52.006;4.374;2022-10-31T07:10:32;79.75;;;73.32;;
17177;SDS011;8704;52.006;4.374;2022-10-31T07:13:06;84.13;;;77.45;;
17177;SDS011;8704;52.006;4.374;2022-10-31T07:15:37;82.38;;;75.97;;
17177;SDS011;8704;52.006;4.374;2022-10-31T07:18:07;88.28;;;81.05;;
17177;SDS011;8704;52.006;4.374;2022-10-31T07:20:36;93.28;;;85.90;;
17177;SDS011;8704;52.006;4.374;2022-10-31T07:23:06;91.40;;;84.47;;
17177;SDS011;8704;52.006;4.374;2022-10-31T07:25:34;96.63;;;88.65;;
17177;SDS011;8704;52.006;4.374;2022-10-31T07:28:02;104.97;;;96.65;;
17177;SDS011;8704;52.006;4.374;2022-10-31T07:30:30;105.88;;;97.75;;
17177;SDS011;8704;52.006;4.374;2022-10-31T07:32:58;120.38;;;110.85;;
17177;SDS011;8704;52.006;4.374;2022-10-31T07:35:27;127.65;;;117.18;;
17177;SDS011;8704;52.006;4.374;2022-10-31T07:37:56;131.40;;;121.30;;
17177;SDS011;8704;52.006;4.374;2022-10-31T07:40:29;138.13;;;127.15;;
17177;SDS011;8704;52.006;4.374;2022-10-31T07:42:57;141.27;;;130.27;;
17177;SDS011;8704;52.006;4.374;2022-10-31T07:45:25;150.13;;;138.18;;
17177;SDS011;8704;52.006;4.374;2022-10-31T07:47:53;157.40;;;143.88;;
17177;SDS011;8704;52.006;4.374;2022-10-31T07:50:21;165.60;;;151.82;;
17177;SDS011;8704;52.006;4.374;2022-10-31T07:52:57;159.63;;;146.48;;
17177;SDS011;8704;52.006;4.374;2022-10-31T07:55:27;160.77;;;147.00;;
17177;SDS011;8704;52.006;4.374;2022-10-31T07:57:57;170.60;;;157.00;;
17177;SDS011;8704;52.006;4.374;2022-10-31T08:00:26;164.20;;;150.82;;
17177;SDS011;8704;52.006;4.374;2022-10-31T08:02:57;168.73;;;154.80;;
17177;SDS011;8704;52.006;4.374;2022-10-31T08:07:56;163.18;;;150.38;;
17177;SDS011;8704;52.006;4.374;2022-10-31T08:10:25;163.88;;;150.77;;
17177;SDS011;8704;52.006;4.374;2022-10-31T08:12:55;164.23;;;151.23;;
17177;SDS011;8704;52.006;4.374;2022-10-31T08:15:24;167.68;;;154.30;;
17177;SDS011;8704;52.006;4.374;2022-10-31T08:17:53;175.45;;;161.90;;
17177;SDS011;8704;52.006;4.374;2022-10-31T08:20:21;180.32;;;165.85;;
17177;SDS011;8704;52.006;4.374;2022-10-31T08:22:53;171.75;;;158.23;;
17177;SDS011;8704;52.006;4.374;2022-10-31T08:25:22;183.40;;;168.82;;
17177;SDS011;8704;52.006;4.374;2022-10-31T08:27:53;180.60;;;165.60;;
17177;SDS011;8704;52.006;4.374;2022-10-31T08:30:24;183.40;;;168.35;;
17177;SDS011;8704;52.006;4.374;2022-10-31T08:32:57;178.43;;;163.80;;
17177;SDS011;8704;52.006;4.374;2022-10-31T08:37:54;188.15;;;172.40;;
17177;SDS011;8704;52.006;4.374;2022-10-31T08:40:24;195.57;;;178.75;;
17177;SDS011;8704;52.006;4.374;2022-10-31T08:42:58;192.75;;;177.43;;
17177;SDS011;8704;52.006;4.374;2022-10-31T08:45:26;204.20;;;187.82;;
17177;SDS011;8704;52.006;4.374;2022-10-31T08:47:58;200.25;;;183.43;;
17177;SDS011;8704;52.006;4.374;2022-10-31T08:50:27;198.27;;;182.35;;
17177;SDS011;8704;52.006;4.374;2022-10-31T08:53:00;201.25;;;184.02;;
17177;SDS011;8704;52.006;4.374;2022-10-31T08:55:32;209.57;;;191.65;;
17177;SDS011;8704;52.006;4.374;2022-10-31T08:58:02;208.00;;;190.23;;
17177;SDS011;8704;52.006;4.374;2022-10-31T09:00:31;209.70;;;192.05;;
17177;SDS011;8704;52.006;4.374;2022-10-31T09:03:00;199.27;;;181.65;;
17177;SDS011;8704;52.006;4.374;2022-10-31T09:05:29;198.13;;;180.95;;
17177;SDS011;8704;52.006;4.374;2022-10-31T09:07:59;192.70;;;175.70;;
17177;SDS011;8704;52.006;4.374;2022-10-31T09:10:28;187.57;;;171.60;;
17177;SDS011;8704;52.006;4.374;2022-10-31T09:12:58;187.55;;;172.18;;
17177;SDS011;8704;52.006;4.374;2022-10-31T09:15:28;182.52;;;166.77;;
17177;SDS011;8704;52.006;4.374;2022-10-31T09:17:57;176.02;;;161.15;;
17177;SDS011;8704;52.006;4.374;2022-10-31T09:20:26;173.02;;;158.02;;
17177;SDS011;8704;52.006;4.374;2022-10-31T09:22:55;171.13;;;155.98;;
17177;SDS011;8704;52.006;4.374;2022-10-31T09:25:24;174.02;;;159.32;;
17177;SDS011;8704;52.006;4.374;2022-10-31T09:27:55;182.88;;;167.43;;
17177;SDS011;8704;52.006;4.374;2022-10-31T09:33:02;163.88;;;150.63;;
17177;SDS011;8704;52.006;4.374;2022-10-31T09:35:32;158.25;;;145.52;;
17177;SDS011;8704;52.006;4.374;2022-10-31T09:38:01;157.00;;;144.27;;
17177;SDS011;8704;52.006;4.374;2022-10-31T09:40:31;148.45;;;136.50;;
17177;SDS011;8704;52.006;4.374;2022-10-31T09:43:03;150.20;;;138.40;;
17177;SDS011;8704;52.006;4.374;2022-10-31T09:45:42;143.00;;;131.77;;
17177;SDS011;8704;52.006;4.374;2022-10-31T09:51:23;119.72;;;110.18;;
17177;SDS011;8704;52.006;4.374;2022-10-31T09:53:56;112.80;;;103.57;;
17177;SDS011;8704;52.006;4.374;2022-10-31T09:56:30;99.50;;;91.18;;
17177;SDS011;8704;52.006;4.374;2022-10-31T09:58:59;90.00;;;82.88;;
17177;SDS011;8704;52.006;4.374;2022-10-31T10:01:33;83.75;;;76.47;;
17177;SDS011;8704;52.006;4.374;2022-10-31T10:04:14;81.28;;;74.68;;
17177;SDS011;8704;52.006;4.374;2022-10-31T10:06:51;78.88;;;72.38;;
17177;SDS011;8704;52.006;4.374;2022-10-31T10:09:20;74.15;;;68.22;;
17177;SDS011;8704;52.006;4.374;2022-10-31T10:11:54;75.43;;;69.00;;
17177;SDS011;8704;52.006;4.374;2022-10-31T10:14:38;78.72;;;72.35;;
17177;SDS011;8704;52.006;4.374;2022-10-31T10:17:18;74.13;;;68.30;;
17177;SDS011;8704;52.006;4.374;2022-10-31T10:19:59;80.22;;;73.53;;
17177;SDS011;8704;52.006;4.374;2022-10-31T10:22:40;78.57;;;72.50;;
17177;SDS011;8704;52.006;4.374;2022-10-31T10:25:16;82.65;;;76.03;;
17177;SDS011;8704;52.006;4.374;2022-10-31T10:27:51;81.82;;;75.50;;
17177;SDS011;8704;52.006;4.374;2022-10-31T10:30:31;73.00;;;66.72;;
17177;SDS011;8704;52.006;4.374;2022-10-31T10:33:04;72.40;;;66.22;;
17177;SDS011;8704;52.006;4.374;2022-10-31T10:35:40;69.55;;;63.92;;
17177;SDS011;8704;52.006;4.374;2022-10-31T10:38:14;67.63;;;62.25;;
17177;SDS011;8704;52.006;4.374;2022-10-31T10:40:47;68.53;;;63.15;;
17177;SDS011;8704;52.006;4.374;2022-10-31T10:43:19;60.75;;;55.80;;
17177;SDS011;8704;52.006;4.374;2022-10-31T10:48:40;54.53;;;50.08;;
17177;SDS011;8704;52.006;4.374;2022-10-31T10:51:15;45.65;;;41.78;;
17177;SDS011;8704;52.006;4.374;2022-10-31T10:57:10;41.20;;;37.80;;
17177;SDS011;8704;52.006;4.374;2022-10-31T10:59:47;38.90;;;35.60;;
17177;SDS011;8704;52.006;4.374;2022-10-31T11:02:16;32.28;;;29.35;;
17177;SDS011;8704;52.006;4.374;2022-10-31T11:04:47;28.55;;;26.05;;
17177;SDS011;8704;52.006;4.374;2022-10-31T11:09:47;29.25;;;26.50;;
17177;SDS011;8704;52.006;4.374;2022-10-31T11:12:17;27.23;;;24.42;;
17177;SDS011;8704;52.006;4.374;2022-10-31T11:14:50;25.80;;;23.20;;
17177;SDS011;8704;52.006;4.374;2022-10-31T11:17:26;29.10;;;25.00;;
17177;SDS011;8704;52.006;4.374;2022-10-31T11:20:00;30.63;;;27.40;;
17177;SDS011;8704;52.006;4.374;2022-10-31T11:22:32;32.72;;;29.33;;
17177;SDS011;8704;52.006;4.374;2022-10-31T11:24:59;36.15;;;32.42;;
17177;SDS011;8704;52.006;4.374;2022-10-31T11:27:27;37.63;;;33.65;;
17177;SDS011;8704;52.006;4.374;2022-10-31T11:30:03;39.58;;;35.40;;
17177;SDS011;8704;52.006;4.374;2022-10-31T11:32:32;41.38;;;33.95;;
17177;SDS011;8704;52.006;4.374;2022-10-31T11:35:00;43.70;;;32.83;;
17177;SDS011;8704;52.006;4.374;2022-10-31T11:37:40;38.38;;;34.22;;
17177;SDS011;8704;52.006;4.374;2022-10-31T11:40:15;42.70;;;35.03;;
17177;SDS011;8704;52.006;4.374;2022-10-31T11:42:45;38.30;;;33.10;;
17177;SDS011;8704;52.006;4.374;2022-10-31T11:45:15;45.42;;;34.38;;
17177;SDS011;8704;52.006;4.374;2022-10-31T11:47:45;44.10;;;35.08;;
17177;SDS011;8704;52.006;4.374;2022-10-31T11:50:22;43.13;;;35.70;;
17177;SDS011;8704;52.006;4.374;2022-10-31T11:52:53;46.47;;;35.63;;
17177;SDS011;8704;52.006;4.374;2022-10-31T11:55:30;51.50;;;37.95;;
17177;SDS011;8704;52.006;4.374;2022-10-31T11:57:59;49.92;;;37.90;;
17177;SDS011;8704;52.006;4.374;2022-10-31T12:00:29;43.33;;;34.78;;
17177;SDS011;8704;52.006;4.374;2022-10-31T12:03:06;45.42;;;36.33;;
17177;SDS011;8704;52.006;4.374;2022-10-31T12:05:39;43.22;;;35.72;;
17177;SDS011;8704;52.006;4.374;2022-10-31T12:08:12;43.00;;;35.85;;
17177;SDS011;8704;52.006;4.374;2022-10-31T12:10:43;47.38;;;37.25;;
17177;SDS011;8704;52.006;4.374;2022-10-31T12:13:24;48.75;;;39.38;;
17177;SDS011;8704;52.006;4.374;2022-10-31T12:16:02;48.83;;;39.17;;
17177;SDS011;8704;52.006;4.374;2022-10-31T12:18:42;50.30;;;40.67;;
17177;SDS011;8704;52.006;4.374;2022-10-31T12:21:23;50.70;;;38.97;;
17177;SDS011;8704;52.006;4.374;2022-10-31T12:24:18;49.58;;;39.03;;
17177;SDS011;8704;52.006;4.374;2022-10-31T12:26:57;46.63;;;38.30;;
17177;SDS011;8704;52.006;4.374;2022-10-31T12:32:32;47.13;;;37.35;;
17177;SDS011;8704;52.006;4.374;2022-10-31T12:35:17;44.80;;;34.10;;
17177;SDS011;8704;52.006;4.374;2022-10-31T12:37:58;45.67;;;34.42;;
17177;SDS011;8704;52.006;4.374;2022-10-31T12:40:48;44.67;;;35.63;;
17177;SDS011;8704;52.006;4.374;2022-10-31T12:43:30;49.08;;;35.90;;
17177;SDS011;8704;52.006;4.374;2022-10-31T12:46:03;43.75;;;36.45;;
17177;SDS011;8704;52.006;4.374;2022-10-31T12:48:44;43.65;;;35.47;;
17177;SDS011;8704;52.006;4.374;2022-10-31T12:51:24;41.10;;;31.45;;
17177;SDS011;8704;52.006;4.374;2022-10-31T12:54:05;39.83;;;29.70;;
17177;SDS011;8704;52.006;4.374;2022-10-31T12:56:47;40.42;;;32.08;;
17177;SDS011;8704;52.006;4.374;2022-10-31T12:59:24;43.63;;;31.15;;
17177;SDS011;8704;52.006;4.374;2022-10-31T13:01:58;40.92;;;29.90;;
17177;SDS011;8704;52.006;4.374;2022-10-31T13:04:33;43.28;;;30.45;;
17177;SDS011;8704;52.006;4.374;2022-10-31T13:07:09;40.97;;;30.42;;
17177;SDS011;8704;52.006;4.374;2022-10-31T13:09:43;40.42;;;29.60;;
17177;SDS011;8704;52.006;4.374;2022-10-31T13:12:17;44.97;;;31.50;;
17177;SDS011;8704;52.006;4.374;2022-10-31T13:14:48;43.88;;;29.95;;
17177;SDS011;8704;52.006;4.374;2022-10-31T13:17:24;36.40;;;27.27;;
17177;SDS011;8704;52.006;4.374;2022-10-31T13:19:58;38.75;;;27.98;;
17177;SDS011;8704;52.006;4.374;2022-10-31T13:22:41;37.92;;;28.10;;
17177;SDS011;8704;52.006;4.374;2022-10-31T13:25:13;40.38;;;27.92;;
17177;SDS011;8704;52.006;4.374;2022-10-31T13:27:47;38.05;;;28.38;;
17177;SDS011;8704;52.006;4.374;2022-10-31T13:30:18;39.35;;;28.35;;
17177;SDS011;8704;52.006;4.374;2022-10-31T13:32:50;41.28;;;28.50;;
17177;SDS011;8704;52.006;4.374;2022-10-31T13:35:24;44.65;;;29.83;;
17177;SDS011;8704;52.006;4.374;2022-10-31T13:38:01;39.67;;;29.52;;
17177;SDS011;8704;52.006;4.374;2022-10-31T13:40:38;41.03;;;30.17;;
17177;SDS011;8704;52.006;4.374;2022-10-31T13:43:16;42.28;;;31.77;;
17177;SDS011;8704;52.006;4.374;2022-10-31T13:45:53;44.13;;;31.83;;
17177;SDS011;8704;52.006;4.374;2022-10-31T13:48:33;41.45;;;31.50;;
17177;SDS011;8704;52.006;4.374;2022-10-31T13:51:04;41.95;;;31.67;;
17177;SDS011;8704;52.006;4.374;2022-10-31T13:53:39;42.10;;;30.85;;
17177;SDS011;8704;52.006;4.374;2022-10-31T13:56:20;37.38;;;30.30;;
17177;SDS011;8704;52.006;4.374;2022-10-31T13:58:56;41.85;;;32.05;;
17177;SDS011;8704;52.006;4.374;2022-10-31T14:01:27;40.50;;;31.17;;
17177;SDS011;8704;52.006;4.374;2022-10-31T14:03:57;39.05;;;32.53;;
17177;SDS011;8704;52.006;4.374;2022-10-31T14:06:40;46.28;;;32.60;;
17177;SDS011;8704;52.006;4.374;2022-10-31T14:09:17;43.28;;;33.50;;
17177;SDS011;8704;52.006;4.374;2022-10-31T14:11:49;40.50;;;33.88;;
17177;SDS011;8704;52.006;4.374;2022-10-31T14:14:19;40.95;;;33.42;;
17177;SDS011;8704;52.006;4.374;2022-10-31T14:16:53;46.63;;;36.30;;
17177;SDS011;8704;52.006;4.374;2022-10-31T14:19:23;47.88;;;38.03;;
17177;SDS011;8704;52.006;4.374;2022-10-31T14:21:53;47.22;;;36.75;;
17177;SDS011;8704;52.006;4.374;2022-10-31T14:24:33;47.50;;;37.20;;
17177;SDS011;8704;52.006;4.374;2022-10-31T14:27:04;53.33;;;38.08;;
17177;SDS011;8704;52.006;4.374;2022-10-31T14:29:49;53.00;;;39.72;;
17177;SDS011;8704;52.006;4.374;2022-10-31T14:32:19;49.80;;;39.05;;
17177;SDS011;8704;52.006;4.374;2022-10-31T14:40:20;50.13;;;41.17;;
17177;SDS011;8704;52.006;4.374;2022-10-31T14:43:01;58.47;;;42.97;;
17177;SDS011;8704;52.006;4.374;2022-10-31T14:45:47;55.25;;;41.38;;
17177;SDS011;8704;52.006;4.374;2022-10-31T14:48:30;56.72;;;43.35;;
17177;SDS011;8704;52.006;4.374;2022-10-31T14:51:21;51.80;;;41.65;;
17177;SDS011;8704;52.006;4.374;2022-10-31T14:53:53;55.65;;;41.97;;
17177;SDS011;8704;52.006;4.374;2022-10-31T14:56:23;52.88;;;42.00;;
17177;SDS011;8704;52.006;4.374;2022-10-31T14:58:52;53.90;;;42.25;;
17177;SDS011;8704;52.006;4.374;2022-10-31T15:01:25;57.95;;;43.63;;
17177;SDS011;8704;52.006;4.374;2022-10-31T15:06:47;55.08;;;42.58;;
17177;SDS011;8704;52.006;4.374;2022-10-31T15:09:22;57.40;;;44.10;;
17177;SDS011;8704;52.006;4.374;2022-10-31T15:11:51;55.70;;;43.95;;
17177;SDS011;8704;52.006;4.374;2022-10-31T15:14:21;53.80;;;42.17;;
17177;SDS011;8704;52.006;4.374;2022-10-31T15:16:52;53.58;;;42.40;;
17177;SDS011;8704;52.006;4.374;2022-10-31T15:19:21;53.83;;;45.05;;
17177;SDS011;8704;52.006;4.374;2022-10-31T15:21:51;55.88;;;45.33;;
17177;SDS011;8704;52.006;4.374;2022-10-31T15:24:22;55.05;;;45.00;;
17177;SDS011;8704;52.006;4.374;2022-10-31T15:26:52;53.60;;;44.17;;
17177;SDS011;8704;52.006;4.374;2022-10-31T15:29:29;60.08;;;45.75;;
17177;SDS011;8704;52.006;4.374;2022-10-31T15:31:59;62.88;;;46.05;;